createdAt,value
2017-11-24T00:00:11.111Z,92.55
2017-11-24T00:01:21.205Z,93.41
2017-11-24T00:02:31.276Z,92.93
2017-11-24T00:03:41.575Z,93.41
2017-11-24T00:04:51.905Z,93.02
2017-11-24T00:06:02.435Z,92.65
2017-11-24T00:07:13.140Z,93.12
2017-11-24T00:08:23.468Z,93.31
2017-11-24T00:09:33.501Z,93.22
2017-11-24T00:10:43.844Z,93.6
2017-11-24T00:11:54.165Z,93.22
2017-11-24T00:13:04.209Z,93.31
2017-11-24T00:14:14.232Z,93.41
2017-11-24T00:15:24.594Z,93.31
2017-11-24T00:16:34.938Z,93.7
2017-11-24T00:17:45.233Z,93.88
2017-11-24T00:18:55.856Z,93.79
2017-11-24T00:20:06.229Z,93.7
2017-11-24T00:21:16.685Z,93.6
2017-11-24T00:22:26.992Z,93.6
2017-11-24T00:23:37.297Z,93.7
2017-11-24T00:24:47.626Z,93.41
2017-11-24T00:25:58.148Z,93.7
2017-11-24T00:27:08.230Z,93.88
2017-11-24T00:28:18.798Z,93.7
2017-11-24T00:29:29.277Z,93.7
2017-11-24T00:30:39.566Z,93.41
2017-11-24T00:31:49.876Z,93.6
2017-11-24T00:33:00.168Z,93.7
2017-11-24T00:34:10.412Z,93.7
2017-11-24T00:35:20.489Z,93.6
2017-11-24T00:36:30.827Z,93.41
2017-11-24T00:37:41.115Z,93.51
2017-11-24T00:38:51.146Z,93.41
2017-11-24T00:40:00.890Z,93.7
2017-11-24T00:41:11.171Z,93.51
2017-11-24T00:42:21.494Z,93.41
2017-11-24T00:43:31.833Z,93.7
2017-11-24T00:44:42.132Z,93.6
2017-11-24T00:45:52.437Z,93.41
2017-11-24T00:47:02.787Z,93.79
2017-11-24T00:48:44.697Z,93.88
2017-11-24T00:49:54.992Z,93.55
2017-11-24T00:51:05.317Z,93.98
2017-11-24T00:52:15.610Z,93.88
2017-11-24T00:53:25.888Z,93.7
2017-11-24T00:54:36.227Z,93.7
2017-11-24T00:55:46.689Z,93.7
2017-11-24T00:56:57.031Z,93.7
2017-11-24T00:58:07.389Z,93.6
2017-11-24T00:59:17.419Z,93.7
2017-11-24T01:00:27.081Z,93.6
2017-11-24T01:01:37.499Z,93.41
2017-11-24T01:02:47.802Z,93.55
2017-11-24T01:03:58.089Z,93.55
2017-11-24T01:05:08.093Z,93.6
2017-11-24T01:06:18.168Z,93.7
2017-11-24T01:07:28.512Z,93.65
2017-11-24T01:08:38.852Z,94.22
2017-11-24T01:09:49.134Z,94.22
2017-11-24T01:10:59.229Z,94.41
2017-11-24T01:12:10.602Z,94.32
2017-11-24T01:13:20.528Z,94.41
2017-11-24T01:14:30.885Z,94.41
2017-11-24T01:15:41.176Z,94.41
2017-11-24T01:16:51.506Z,94.41
2017-11-24T01:18:01.874Z,94.12
2017-11-24T01:19:12.314Z,94.32
2017-11-24T01:20:22.602Z,94.32
2017-11-24T01:21:32.715Z,94.32
2017-11-24T01:22:43.002Z,94.03
2017-11-24T01:23:53.285Z,94.03
2017-11-24T01:25:03.316Z,94.12
2017-11-24T01:26:13.352Z,94.03
2017-11-24T01:27:23.477Z,94.41
2017-11-24T01:28:33.782Z,94.03
2017-11-24T01:29:44.312Z,94.12
2017-11-24T01:30:54.643Z,94.03
2017-11-24T01:32:05.004Z,94.22
2017-11-24T01:33:15.084Z,94.12
2017-11-24T01:34:25.611Z,94.12
2017-11-24T01:35:35.263Z,94.32
2017-11-24T01:36:45.548Z,94.79
2017-11-24T01:37:55.865Z,94.79
2017-11-24T01:39:06.192Z,94.6
2017-11-24T01:40:16.494Z,94.7
2017-11-24T01:41:26.854Z,94.41
2017-11-24T01:42:37.173Z,94.6
2017-11-24T01:43:47.096Z,94.51
2017-11-24T01:44:57.243Z,94.51
2017-11-24T01:46:07.689Z,94.51
2017-11-24T01:47:17.928Z,94.51
2017-11-24T01:48:27.937Z,94.7
2017-11-24T01:49:38.150Z,94.03
2017-11-24T01:50:48.433Z,94.22
2017-11-24T01:51:58.713Z,94.6
2017-11-24T01:53:09.028Z,94.32
2017-11-24T01:54:19.607Z,94.12
2017-11-24T01:55:29.690Z,94.12
2017-11-24T01:56:39.793Z,94.32
2017-11-24T01:57:50.078Z,94.32
2017-11-24T01:59:00.366Z,94.89
2017-11-24T02:00:10.688Z,94.7
2017-11-24T02:01:21.213Z,94.79
2017-11-24T02:02:31.514Z,94.79
2017-11-24T02:03:41.838Z,95.08
2017-11-24T02:04:51.376Z,95.08
2017-11-24T02:06:01.447Z,94.79
2017-11-24T02:07:11.773Z,94.89
2017-11-24T02:08:21.690Z,94.79
2017-11-24T02:09:31.645Z,94.7
2017-11-24T02:10:41.674Z,94.79
2017-11-24T02:11:51.990Z,95.08
2017-11-24T02:13:02.394Z,95.08
2017-11-24T02:14:12.881Z,95.08
2017-11-24T02:15:22.951Z,95.17
2017-11-24T02:16:33.229Z,95.08
2017-11-24T02:17:43.511Z,95.08
2017-11-24T02:18:54.058Z,94.79
2017-11-24T02:20:04.364Z,94.32
2017-11-24T02:21:14.301Z,94.22
2017-11-24T02:22:24.606Z,94.22
2017-11-24T02:23:34.998Z,94.7
2017-11-24T02:24:45.513Z,94.7
2017-11-24T02:25:55.734Z,94.79
2017-11-24T02:27:06.158Z,94.12
2017-11-24T02:28:16.815Z,94.51
2017-11-24T02:29:27.213Z,94.51
2017-11-24T02:30:37.568Z,94.51
2017-11-24T02:31:47.598Z,94.22
2017-11-24T02:32:57.951Z,94.12
2017-11-24T02:34:08.304Z,94.22
2017-11-24T02:35:18.314Z,94.32
2017-11-24T02:36:28.596Z,94.03
2017-11-24T02:37:38.904Z,94.03
2017-11-24T02:38:49.269Z,94.41
2017-11-24T02:39:59.551Z,94.41
2017-11-24T02:41:09.578Z,94.32
2017-11-24T02:42:20.065Z,94.12
2017-11-24T02:43:30.586Z,94.41
2017-11-24T02:44:40.437Z,93.84
2017-11-24T02:45:50.545Z,93.84
2017-11-24T02:47:00.278Z,93.17
2017-11-24T02:48:10.565Z,93.55
2017-11-24T02:49:20.842Z,93.36
2017-11-24T02:50:31.124Z,93.36
2017-11-24T02:51:41.468Z,93.65
2017-11-24T02:52:51.903Z,93.65
2017-11-24T02:54:02.226Z,93.36
2017-11-24T02:55:12.746Z,93.17
2017-11-24T02:56:23.089Z,93.17
2017-11-24T02:57:33.205Z,93.36
2017-11-24T02:58:43.510Z,93.17
2017-11-24T02:59:53.858Z,93.17
2017-11-24T03:01:04.136Z,92.98
2017-11-24T03:02:14.225Z,93.27
2017-11-24T03:03:24.506Z,93.36
2017-11-24T03:04:34.846Z,93.36
2017-11-24T03:05:45.403Z,93.17
2017-11-24T03:06:55.685Z,93.27
2017-11-24T03:08:05.996Z,92.69
2017-11-24T03:09:16.298Z,92.69
2017-11-24T03:10:26.239Z,93.27
2017-11-24T03:11:36.754Z,93.08
2017-11-24T03:12:47.278Z,93.08
2017-11-24T03:13:57.584Z,93.36
2017-11-24T03:15:07.680Z,93.17
2017-11-24T03:16:17.954Z,93.46
2017-11-24T03:17:28.258Z,93.08
2017-11-24T03:18:38.349Z,93.17
2017-11-24T03:19:48.104Z,93.08
2017-11-24T03:20:58.228Z,93.36
2017-11-24T03:22:07.874Z,93.41
2017-11-24T03:23:18.272Z,93.22
2017-11-24T03:24:28.572Z,93.51
2017-11-24T03:25:38.352Z,93.55
2017-11-24T03:26:48.633Z,93.65
2017-11-24T03:27:59.046Z,93.36
2017-11-24T03:29:09.347Z,93.27
2017-11-24T03:30:19.657Z,93.55
2017-11-24T03:31:29.702Z,93.36
2017-11-24T03:32:40.045Z,93.55
2017-11-24T03:33:50.012Z,93.36
2017-11-24T03:34:59.926Z,93.36
2017-11-24T03:36:10.190Z,93.36
2017-11-24T03:37:20.492Z,93.65
2017-11-24T03:38:30.290Z,93.65
2017-11-24T03:39:40.599Z,93.46
2017-11-24T03:40:50.626Z,93.55
2017-11-24T03:42:00.623Z,93.65
2017-11-24T03:43:10.962Z,93.55
2017-11-24T03:44:21.242Z,93.55
2017-11-24T03:45:31.257Z,93.46
2017-11-24T03:46:41.630Z,93.55
2017-11-24T03:47:51.899Z,93.36
2017-11-24T03:49:02.203Z,93.84
2017-11-24T03:50:12.491Z,93.55
2017-11-24T03:51:22.757Z,93.55
2017-11-24T03:52:33.053Z,93.74
2017-11-24T03:53:43.335Z,93.65
2017-11-24T03:54:53.722Z,94.41
2017-11-24T03:56:04.059Z,93.55
2017-11-24T03:57:14.098Z,93.84
2017-11-24T03:58:24.425Z,93.84
2017-11-24T03:59:34.739Z,93.65
2017-11-24T04:00:45.012Z,94.12
2017-11-24T04:01:55.079Z,94.22
2017-11-24T04:03:05.362Z,94.32
2017-11-24T04:04:15.911Z,94.12
2017-11-24T04:05:26.220Z,94.32
2017-11-24T04:06:36.238Z,94.03
2017-11-24T04:07:46.282Z,94.51
2017-11-24T04:08:56.566Z,94.6
2017-11-24T04:10:06.905Z,94.51
2017-11-24T04:11:16.898Z,94.32
2017-11-24T04:12:27.218Z,94.41
2017-11-24T04:13:37.480Z,94.98
2017-11-24T04:14:47.901Z,94.89
2017-11-24T04:15:58.183Z,94.98
2017-11-24T04:17:08.312Z,94.89
2017-11-24T04:18:18.628Z,94.89
2017-11-24T04:19:28.922Z,95.08
2017-11-24T04:20:39.208Z,95.37
2017-11-24T04:21:49.488Z,95.37
2017-11-24T04:22:59.479Z,95.08
2017-11-24T04:24:09.795Z,94.89
2017-11-24T04:25:19.697Z,95.56
2017-11-24T04:26:29.995Z,95.17
2017-11-24T04:27:40.438Z,95.37
2017-11-24T04:28:50.452Z,95.94
2017-11-24T04:30:00.357Z,95.65
2017-11-24T04:31:10.402Z,95.65
2017-11-24T04:32:20.822Z,96.13
2017-11-24T04:33:30.856Z,96.03
2017-11-24T04:34:40.989Z,96.03
2017-11-24T04:35:51.295Z,96.03
2017-11-24T04:37:01.670Z,95.84
2017-11-24T04:38:11.683Z,95.94
2017-11-24T04:39:21.982Z,96.03
2017-11-24T04:40:31.213Z,96.32
2017-11-24T04:41:41.558Z,96.22
2017-11-24T04:42:51.858Z,95.84
2017-11-24T04:44:01.998Z,95.65
2017-11-24T04:45:12.325Z,95.75
2017-11-24T04:46:22.597Z,95.84
2017-11-24T04:47:32.642Z,95.84
2017-11-24T04:48:42.994Z,96.41
2017-11-24T04:49:53.442Z,96.32
2017-11-24T04:51:03.865Z,96.41
2017-11-24T04:52:14.194Z,96.22
2017-11-24T04:53:24.465Z,96.03
2017-11-24T04:54:34.214Z,96.32
2017-11-24T04:55:44.502Z,96.03
2017-11-24T04:56:54.771Z,96.22
2017-11-24T04:58:04.864Z,96.03
2017-11-24T04:59:14.977Z,96.22
2017-11-24T05:00:25.067Z,96.13
2017-11-24T05:01:35.397Z,96.13
2017-11-24T05:02:45.692Z,96.32
2017-11-24T05:03:55.989Z,96.13
2017-11-24T05:05:06.385Z,96.61
2017-11-24T05:06:16.662Z,96.8
2017-11-24T05:07:26.959Z,96.51
2017-11-24T05:08:36.997Z,96.51
2017-11-24T05:09:46.467Z,96.7
2017-11-24T05:10:56.479Z,96.51
2017-11-24T05:12:06.769Z,96.32
2017-11-24T05:13:17.022Z,96.61
2017-11-24T05:14:27.405Z,96.61
2017-11-24T05:15:37.503Z,96.51
2017-11-24T05:16:47.826Z,96.32
2017-11-24T05:17:58.053Z,96.51
2017-11-24T05:19:08.554Z,96.61
2017-11-24T05:20:18.572Z,96.22
2017-11-24T05:21:28.884Z,96.61
2017-11-24T05:22:38.958Z,96.41
2017-11-24T05:23:48.646Z,96.41
2017-11-24T05:24:59.653Z,96.32
2017-11-24T05:26:10.033Z,96.22
2017-11-24T05:27:20.313Z,96.32
2017-11-24T05:28:30.600Z,96.61
2017-11-24T05:29:40.520Z,96.32
2017-11-24T05:30:50.890Z,96.32
2017-11-24T05:32:00.934Z,96.61
2017-11-24T05:33:11.000Z,96.7
2017-11-24T05:34:21.578Z,96.22
2017-11-24T05:35:31.590Z,96.51
2017-11-24T05:36:41.687Z,96.41
2017-11-24T05:37:51.718Z,96.32
2017-11-24T05:39:02.022Z,96.51
2017-11-24T05:40:11.981Z,96.7
2017-11-24T05:41:22.271Z,96.41
2017-11-24T05:42:32.606Z,96.13
2017-11-24T05:43:42.912Z,96.51
2017-11-24T05:44:53.230Z,96.51
2017-11-24T05:46:03.574Z,96.7
2017-11-24T05:47:13.876Z,96.7
2017-11-24T05:48:23.917Z,95.75
2017-11-24T05:49:34.189Z,95.75
2017-11-24T05:50:44.206Z,96.03
2017-11-24T05:51:54.226Z,96.03
2017-11-24T05:53:04.523Z,96.17
2017-11-24T05:54:14.536Z,96.13
2017-11-24T05:55:24.843Z,96.03
2017-11-24T05:56:34.576Z,96.32
2017-11-24T05:57:44.594Z,96.03
2017-11-24T05:58:54.890Z,96.13
2017-11-24T06:00:05.193Z,95.98
2017-11-24T06:01:15.503Z,95.98
2017-11-24T06:02:25.557Z,96.13
2017-11-24T06:03:35.581Z,96.13
2017-11-24T06:04:45.939Z,95.89
2017-11-24T06:05:55.843Z,95.94
2017-11-24T06:07:06.172Z,95.98
2017-11-24T06:08:16.564Z,96.13
2017-11-24T06:09:26.872Z,96.08
2017-11-24T06:10:37.142Z,95.98
2017-11-24T06:11:47.435Z,96.17
2017-11-24T06:12:57.934Z,96.03
2017-11-24T06:14:08.244Z,96.27
2017-11-24T06:15:18.567Z,95.89
2017-11-24T06:16:28.833Z,96.03
2017-11-24T06:17:38.884Z,95.98
2017-11-24T06:18:49.382Z,95.98
2017-11-24T06:19:59.574Z,95.98
2017-11-24T06:21:09.306Z,96.08
2017-11-24T06:22:19.616Z,96.08
2017-11-24T06:23:29.943Z,95.89
2017-11-24T06:24:40.228Z,96.13
2017-11-24T06:25:50.319Z,95.98
2017-11-24T06:27:00.662Z,96.08
2017-11-24T06:28:10.699Z,95.7
2017-11-24T06:29:20.764Z,96.36
2017-11-24T06:30:30.789Z,96.65
2017-11-24T06:31:41.117Z,96.36
2017-11-24T06:32:51.321Z,96.46
2017-11-24T06:34:01.175Z,96.08
2017-11-24T06:35:11.466Z,96.27
2017-11-24T06:36:21.526Z,96.65
2017-11-24T06:37:31.809Z,96.46
2017-11-24T06:38:42.274Z,96.65
2017-11-24T06:39:52.304Z,96.27
2017-11-24T06:41:02.383Z,96.27
2017-11-24T06:42:12.704Z,96.65
2017-11-24T06:43:23.197Z,97.22
2017-11-24T06:44:33.483Z,97.22
2017-11-24T06:45:43.773Z,97.22
2017-11-24T06:46:53.511Z,97.22
2017-11-24T06:48:03.782Z,97.22
2017-11-24T06:49:13.785Z,96.75
2017-11-24T06:50:24.101Z,96.84
2017-11-24T06:51:34.416Z,97.41
2017-11-24T06:52:44.707Z,97.41
2017-11-24T06:53:54.599Z,97.32
2017-11-24T06:55:04.990Z,97.03
2017-11-24T06:56:15.321Z,97.22
2017-11-24T06:57:25.603Z,97.32
2017-11-24T06:58:35.874Z,97.13
2017-11-24T06:59:45.854Z,97.22
2017-11-24T07:00:56.190Z,97.22
2017-11-24T07:02:06.482Z,97.41
2017-11-24T07:03:16.781Z,97.13
2017-11-24T07:04:27.320Z,97.22
2017-11-24T07:05:37.598Z,97.03
2017-11-24T07:06:47.898Z,97.22
2017-11-24T07:07:58.220Z,97.22
2017-11-24T07:09:08.398Z,97.03
2017-11-24T07:10:18.411Z,97.41
2017-11-24T07:11:28.696Z,97.13
2017-11-24T07:12:38.996Z,97.22
2017-11-24T07:13:49.494Z,97.03
2017-11-24T07:14:59.675Z,97.32
2017-11-24T07:16:09.726Z,97.51
2017-11-24T07:17:19.763Z,97.51
2017-11-24T07:18:30.084Z,97.41
2017-11-24T07:19:40.155Z,97.22
2017-11-24T07:20:50.184Z,97.61
2017-11-24T07:22:00.477Z,97.03
2017-11-24T07:23:10.792Z,96.75
2017-11-24T07:24:21.129Z,96.84
2017-11-24T07:25:31.409Z,96.84
2017-11-24T07:26:41.428Z,96.84
2017-11-24T07:27:51.950Z,97.03
2017-11-24T07:29:02.314Z,96.94
2017-11-24T07:30:12.681Z,96.94
2017-11-24T07:31:22.943Z,97.41
2017-11-24T07:32:32.691Z,96.56
2017-11-24T07:33:42.976Z,96.75
2017-11-24T07:34:53.528Z,96.17
2017-11-24T07:36:03.881Z,96.36
2017-11-24T07:37:14.179Z,96.65
2017-11-24T07:38:24.484Z,96.56
2017-11-24T07:39:34.791Z,96.56
2017-11-24T07:40:45.071Z,96.17
2017-11-24T07:41:55.405Z,96.17
2017-11-24T07:43:05.680Z,96.08
2017-11-24T07:44:16.169Z,95.98
2017-11-24T07:45:26.186Z,95.79
2017-11-24T07:46:36.481Z,96.08
2017-11-24T07:47:46.943Z,96.17
2017-11-24T07:48:57.335Z,95.98
2017-11-24T07:50:07.397Z,96.08
2017-11-24T07:51:17.463Z,95.51
2017-11-24T07:52:27.808Z,95.79
2017-11-24T07:53:38.136Z,95.79
2017-11-24T07:54:48.176Z,95.89
2017-11-24T07:55:58.230Z,95.32
2017-11-24T07:57:08.758Z,95.98
2017-11-24T07:58:20.076Z,95.61
2017-11-24T07:59:30.129Z,95.89
2017-11-24T08:00:39.929Z,95.7
2017-11-24T08:01:49.957Z,95.75
2017-11-24T08:03:00.284Z,95.75
2017-11-24T08:04:10.570Z,94.84
2017-11-24T08:05:20.640Z,95.17
2017-11-24T08:06:30.934Z,94.89
2017-11-24T08:07:40.890Z,95.12
2017-11-24T08:08:51.158Z,94.89
2017-11-24T08:10:01.077Z,94.89
2017-11-24T08:11:11.441Z,95.17
2017-11-24T08:12:21.748Z,94.51
2017-11-24T08:13:32.158Z,94.22
2017-11-24T08:14:42.666Z,93.74
2017-11-24T08:15:52.945Z,93.55
2017-11-24T08:17:02.993Z,93.55
2017-11-24T08:18:13.279Z,93.27
2017-11-24T08:19:23.809Z,93.17
2017-11-24T08:20:34.158Z,92.5
2017-11-24T08:21:44.175Z,92.79
2017-11-24T08:22:54.687Z,92.41
2017-11-24T08:24:05.041Z,92.12
2017-11-24T08:25:15.407Z,91.98
2017-11-24T08:26:25.448Z,91.98
2017-11-24T08:27:35.758Z,91.41
2017-11-24T08:28:45.775Z,91.41
2017-11-24T08:29:55.941Z,91.02
2017-11-24T08:31:06.277Z,90.83
2017-11-24T08:32:16.568Z,90.93
2017-11-24T08:33:26.895Z,90.07
2017-11-24T08:34:37.216Z,89.97
2017-11-24T08:35:47.259Z,89.78
2017-11-24T08:36:57.572Z,89.78
2017-11-24T08:38:07.686Z,89.97
2017-11-24T08:39:18.049Z,90.07
2017-11-24T08:40:28.489Z,89.69
2017-11-24T08:41:38.519Z,90.07
2017-11-24T08:42:48.858Z,89.4
2017-11-24T08:43:59.178Z,89.31
2017-11-24T08:45:09.515Z,89.5
2017-11-24T08:46:18.940Z,89.02
2017-11-24T08:47:29.298Z,89.02
2017-11-24T08:48:39.604Z,89.12
2017-11-24T08:49:49.625Z,88.83
2017-11-24T08:50:59.940Z,89.12
2017-11-24T08:52:10.273Z,89.02
2017-11-24T08:53:20.992Z,89.02
2017-11-24T08:54:31.280Z,89.4
2017-11-24T08:55:41.366Z,88.73
2017-11-24T08:56:51.676Z,89.02
2017-11-24T08:58:01.752Z,88.64
2017-11-24T08:59:11.775Z,89.31
2017-11-24T09:00:22.249Z,88.83
2017-11-24T09:01:32.546Z,88.35
2017-11-24T09:02:42.848Z,88.83
2017-11-24T09:03:53.345Z,89.06
2017-11-24T09:05:03.641Z,88.3
2017-11-24T09:06:13.289Z,88.97
2017-11-24T09:07:23.660Z,88.11
2017-11-24T09:08:34.034Z,88.4
2017-11-24T09:09:44.402Z,87.92
2017-11-24T09:10:54.681Z,87.92
2017-11-24T09:12:04.870Z,88.11
2017-11-24T09:13:15.167Z,88.11
2017-11-24T09:14:25.069Z,88.4
2017-11-24T09:15:35.087Z,87.63
2017-11-24T09:16:44.835Z,87.73
2017-11-24T09:17:55.009Z,88.11
2017-11-24T09:19:04.963Z,88.01
2017-11-24T09:20:15.140Z,87.73
2017-11-24T09:21:24.535Z,88.2
2017-11-24T09:22:34.949Z,87.73
2017-11-24T09:23:45.313Z,88.01
2017-11-24T09:24:55.064Z,87.82
2017-11-24T09:26:05.353Z,88.06
2017-11-24T09:27:15.668Z,87.68
2017-11-24T09:28:26.063Z,87.58
2017-11-24T09:29:36.189Z,87.39
2017-11-24T09:30:46.592Z,87.2
2017-11-24T09:31:56.885Z,87.2
2017-11-24T09:33:07.129Z,86.63
2017-11-24T09:34:17.422Z,86.43
2017-11-24T09:35:27.814Z,85.38
2017-11-24T09:36:37.781Z,85.71
2017-11-24T09:37:48.355Z,84.56
2017-11-24T09:38:58.668Z,84.42
2017-11-24T09:40:08.978Z,83.75
2017-11-24T09:41:19.289Z,83.46
2017-11-24T09:42:29.744Z,83.4
2017-11-24T09:43:40.026Z,81.78
2017-11-24T09:44:49.950Z,81.49
2017-11-24T09:46:00.365Z,81.59
2017-11-24T09:47:10.384Z,81.34
2017-11-24T09:48:20.812Z,81.25
2017-11-24T09:49:30.844Z,81.4
2017-11-24T09:50:41.290Z,81.3
2017-11-24T09:51:51.658Z,81.68
2017-11-24T09:53:01.986Z,81.59
2017-11-24T09:54:12.066Z,81.59
2017-11-24T09:55:22.113Z,81.97
2017-11-24T09:56:32.413Z,82.22
2017-11-24T09:57:42.464Z,81.36
2017-11-24T09:58:53.010Z,82.22
2017-11-24T10:00:03.336Z,82.6
2017-11-24T10:01:13.644Z,81.74
2017-11-24T10:02:23.969Z,82.31
2017-11-24T10:03:34.287Z,82.79
2017-11-24T10:04:44.492Z,82.51
2017-11-24T10:05:54.784Z,82.7
2017-11-24T10:07:04.786Z,82.7
2017-11-24T10:08:14.895Z,83.08
2017-11-24T10:09:25.183Z,83.27
2017-11-24T10:10:35.218Z,82.7
2017-11-24T10:11:45.216Z,83.37
2017-11-24T10:12:55.568Z,83.08
2017-11-24T10:14:05.859Z,83.56
2017-11-24T10:15:16.404Z,83.51
2017-11-24T10:16:26.706Z,83.51
2017-11-24T10:17:36.760Z,83.33
2017-11-24T10:18:47.073Z,83.7
2017-11-24T10:19:56.822Z,84.19
2017-11-24T10:21:06.855Z,84.19
2017-11-24T10:22:17.170Z,83.99
2017-11-24T10:23:27.488Z,84.85
2017-11-24T10:24:37.851Z,85.14
2017-11-24T10:25:47.637Z,86.29
2017-11-24T10:26:57.637Z,86.67
2017-11-24T10:28:07.652Z,86.57
2017-11-24T10:29:17.619Z,86.43
2017-11-24T10:30:27.275Z,87.29
2017-11-24T10:31:37.164Z,87.48
2017-11-24T10:32:47.466Z,87.87
2017-11-24T10:33:57.761Z,88.25
2017-11-24T10:35:07.818Z,88.25
2017-11-24T10:36:17.848Z,87.87
2017-11-24T10:37:28.160Z,88.3
2017-11-24T10:38:38.185Z,87.73
2017-11-24T10:39:48.237Z,86.96
2017-11-24T10:40:58.538Z,87.06
2017-11-24T10:42:08.590Z,86.73
2017-11-24T10:43:18.555Z,86.92
2017-11-24T10:44:28.634Z,87.3
2017-11-24T10:45:38.553Z,87.21
2017-11-24T10:46:49.022Z,87.21
2017-11-24T10:47:59.358Z,87.59
2017-11-24T10:49:09.437Z,87.3
2017-11-24T10:50:19.372Z,87.49
2017-11-24T10:51:29.406Z,88.07
2017-11-24T10:52:39.950Z,88.21
2017-11-24T10:53:50.320Z,87.64
2017-11-24T10:55:00.356Z,87.35
2017-11-24T10:56:10.376Z,87.64
2017-11-24T10:57:20.686Z,87.64
2017-11-24T10:58:30.797Z,87.45
2017-11-24T10:59:41.364Z,87.83
2017-11-24T11:00:51.311Z,88.21
2017-11-24T11:02:01.600Z,87.88
2017-11-24T11:03:12.128Z,88.31
2017-11-24T11:04:22.465Z,88.26
2017-11-24T11:05:32.469Z,88.07
2017-11-24T11:06:42.500Z,88.26
2017-11-24T11:07:52.556Z,88.26
2017-11-24T11:09:02.530Z,88.64
2017-11-24T11:10:12.267Z,88.07
2017-11-24T11:11:22.318Z,88.45
2017-11-24T11:12:32.346Z,88.45
2017-11-24T11:13:42.664Z,88.07
2017-11-24T11:14:53.005Z,88.41
2017-11-24T11:16:03.310Z,88.45
2017-11-24T11:17:13.486Z,88.51
2017-11-24T11:18:23.611Z,88.17
2017-11-24T11:19:33.635Z,88.45
2017-11-24T11:20:43.967Z,88.07
2017-11-24T11:21:53.976Z,88.36
2017-11-24T11:23:04.646Z,88.36
2017-11-24T11:24:15.057Z,88.26
2017-11-24T11:25:25.391Z,87.98
2017-11-24T11:26:35.442Z,87.84
2017-11-24T11:27:45.495Z,88.31
2017-11-24T11:28:55.591Z,88.51
2017-11-24T11:30:05.961Z,88.12
2017-11-24T11:31:16.099Z,88.6
2017-11-24T11:32:26.418Z,89.07
2017-11-24T11:33:36.567Z,89.07
2017-11-24T11:34:46.904Z,89.36
2017-11-24T11:35:57.231Z,89.36
2017-11-24T11:37:07.015Z,89.75
2017-11-24T11:38:17.285Z,90.03
2017-11-24T11:39:27.305Z,89.65
2017-11-24T11:40:37.153Z,90.22
2017-11-24T11:41:47.529Z,90.98
2017-11-24T11:42:57.619Z,90.7
2017-11-24T11:44:07.956Z,90.79
2017-11-24T11:45:18.024Z,91.08
2017-11-24T11:46:28.620Z,91.27
2017-11-24T11:47:38.672Z,90.89
2017-11-24T11:48:48.688Z,91.08
2017-11-24T11:49:58.382Z,91.08
2017-11-24T11:51:08.386Z,90.89
2017-11-24T11:52:18.432Z,91.17
2017-11-24T11:53:28.749Z,91.36
2017-11-24T11:54:39.094Z,91.08
2017-11-24T11:55:49.378Z,91.27
2017-11-24T11:56:59.057Z,90.98
2017-11-24T11:58:08.710Z,91.17
2017-11-24T11:59:18.860Z,90.89
2017-11-24T12:00:28.904Z,91.84
2017-11-24T12:01:39.247Z,91.74
2017-11-24T12:02:49.294Z,91.55
2017-11-24T12:03:59.732Z,91.65
2017-11-24T12:05:10.035Z,91.55
2017-11-24T12:06:20.349Z,91.65
2017-11-24T12:07:30.880Z,91.36
2017-11-24T12:08:41.216Z,91.74
2017-11-24T12:09:51.765Z,92.13
2017-11-24T12:11:01.817Z,92.13
2017-11-24T12:12:12.199Z,91.94
2017-11-24T12:13:22.524Z,91.84
2017-11-24T12:14:32.537Z,91.84
2017-11-24T12:15:42.862Z,92.22
2017-11-24T12:16:52.895Z,92.22
2017-11-24T12:18:03.360Z,91.74
2017-11-24T12:19:13.713Z,92.22
2017-11-24T12:20:23.493Z,92.13
2017-11-24T12:21:33.812Z,91.55
2017-11-24T12:22:44.263Z,91.55
2017-11-24T12:23:54.419Z,92.03
2017-11-24T12:25:04.715Z,92.03
2017-11-24T12:26:15.040Z,91.94
2017-11-24T12:27:25.172Z,92.03
2017-11-24T12:28:35.462Z,91.55
2017-11-24T12:29:45.737Z,91.27
2017-11-24T12:30:55.714Z,91.74
2017-11-24T12:32:05.910Z,91.94
2017-11-24T12:33:16.277Z,91.55
2017-11-24T12:34:26.640Z,90.89
2017-11-24T12:35:36.556Z,91.27
2017-11-24T12:36:46.927Z,91.08
2017-11-24T12:37:56.948Z,90.89
2017-11-24T12:39:07.598Z,91.08
2017-11-24T12:40:17.925Z,90.89
2017-11-24T12:41:28.038Z,91.08
2017-11-24T12:42:38.470Z,91.08
2017-11-24T12:43:48.805Z,91.17
2017-11-24T12:44:59.165Z,91.84
2017-11-24T12:46:09.619Z,91.55
2017-11-24T12:47:19.586Z,91.55
2017-11-24T12:48:29.490Z,91.55
2017-11-24T12:49:39.860Z,91.74
2017-11-24T12:50:50.400Z,91.55
2017-11-24T12:52:00.465Z,92.22
2017-11-24T12:53:10.774Z,92.03
2017-11-24T12:54:20.440Z,92.22
2017-11-24T12:55:30.824Z,92.5
2017-11-24T12:56:41.179Z,92.32
2017-11-24T12:57:51.503Z,92.32
2017-11-24T12:59:01.645Z,92.22
2017-11-24T13:00:11.659Z,92.32
2017-11-24T13:01:21.998Z,92.79
2017-11-24T13:02:32.321Z,92.6
2017-11-24T13:03:42.150Z,92.22
2017-11-24T13:04:52.186Z,92.89
2017-11-24T13:06:02.261Z,92.69
2017-11-24T13:07:12.487Z,92.89
2017-11-24T13:08:22.571Z,92.69
2017-11-24T13:09:32.943Z,92.89
2017-11-24T13:10:42.986Z,92.69
2017-11-24T13:11:53.327Z,92.79
2017-11-24T13:13:03.852Z,92.69
2017-11-24T13:14:14.158Z,93.27
2017-11-24T13:15:24.467Z,92.69
2017-11-24T13:16:34.522Z,92.98
2017-11-24T13:17:44.886Z,93.46
2017-11-24T13:18:55.221Z,93.08
2017-11-24T13:20:05.529Z,93.27
2017-11-24T13:21:15.867Z,92.89
2017-11-24T13:22:25.876Z,93.08
2017-11-24T13:23:35.926Z,92.89
2017-11-24T13:24:45.747Z,92.98
2017-11-24T13:25:56.068Z,92.6
2017-11-24T13:27:06.204Z,93.27
2017-11-24T13:28:16.375Z,93.17
2017-11-24T13:29:26.684Z,93.08
2017-11-24T13:30:36.721Z,93.27
2017-11-24T13:31:47.375Z,93.08
2017-11-24T13:32:57.072Z,93.17
2017-11-24T13:34:07.414Z,93.17
2017-11-24T13:35:17.714Z,93.37
2017-11-24T13:36:28.069Z,93.46
2017-11-24T13:37:38.429Z,92.89
2017-11-24T13:38:49.165Z,92.89
2017-11-24T13:39:59.514Z,93.41
2017-11-24T13:41:09.577Z,93.46
2017-11-24T13:42:19.944Z,93.6
2017-11-24T13:43:30.029Z,93.6
2017-11-24T13:44:40.280Z,93.22
2017-11-24T13:45:50.210Z,93.32
2017-11-24T13:47:32.389Z,93.51
2017-11-24T13:48:42.728Z,93.55
2017-11-24T13:49:53.059Z,93.55
2017-11-24T13:51:03.496Z,93.17
2017-11-24T13:52:13.844Z,93.51
2017-11-24T13:53:23.760Z,93.65
2017-11-24T13:54:33.590Z,94.13
2017-11-24T13:55:43.620Z,94.22
2017-11-24T13:56:53.335Z,94.03
2017-11-24T13:58:03.626Z,94.22
2017-11-24T13:59:14.022Z,94.13
2017-11-24T14:00:24.444Z,93.84
2017-11-24T14:01:34.753Z,94.08
2017-11-24T14:02:45.068Z,94.37
2017-11-24T14:03:55.290Z,94.27
2017-11-24T14:05:05.616Z,94.27
2017-11-24T14:06:16.079Z,95.17
2017-11-24T14:07:26.393Z,94.93
2017-11-24T14:08:36.751Z,94.74
2017-11-24T14:09:47.171Z,95.12
2017-11-24T14:10:57.509Z,94.84
2017-11-24T14:12:07.800Z,95.12
2017-11-24T14:13:18.126Z,95.22
2017-11-24T14:14:28.516Z,95.89
2017-11-24T14:15:38.705Z,95.7
2017-11-24T14:16:49.014Z,95.79
2017-11-24T14:17:59.331Z,95.6
2017-11-24T14:19:09.374Z,95.98
2017-11-24T14:20:19.707Z,95.6
2017-11-24T14:21:30.040Z,95.65
2017-11-24T14:22:40.199Z,95.65
2017-11-24T14:23:50.537Z,95.6
2017-11-24T14:25:00.288Z,95.51
2017-11-24T14:26:10.299Z,95.41
2017-11-24T14:27:20.353Z,95.6
2017-11-24T14:28:30.757Z,95.79
2017-11-24T14:29:40.719Z,95.36
2017-11-24T14:30:51.067Z,95.03
2017-11-24T14:32:01.041Z,94.84
2017-11-24T14:33:11.113Z,94.84
2017-11-24T14:34:21.698Z,95.22
2017-11-24T14:35:32.317Z,95.51
2017-11-24T14:36:42.718Z,94.74
2017-11-24T14:37:52.745Z,95.03
2017-11-24T14:39:03.260Z,95.12
2017-11-24T14:40:13.754Z,95.17
2017-11-24T14:41:23.788Z,94.79
2017-11-24T14:42:34.192Z,94.98
2017-11-24T14:43:44.575Z,94.79
2017-11-24T14:44:54.588Z,94.7
2017-11-24T14:46:04.647Z,94.6
2017-11-24T14:47:14.772Z,94.79
2017-11-24T14:48:24.843Z,94.98
2017-11-24T14:49:35.180Z,94.79
2017-11-24T14:50:45.303Z,94.98
2017-11-24T14:51:55.693Z,94.98
2017-11-24T14:53:06.062Z,95.17
2017-11-24T14:54:16.443Z,94.93
2017-11-24T14:55:26.865Z,94.74
2017-11-24T14:56:36.683Z,94.65
2017-11-24T14:57:47.483Z,94.74
2017-11-24T14:58:57.538Z,94.84
2017-11-24T15:00:07.646Z,94.46
2017-11-24T15:01:17.404Z,94.22
2017-11-24T15:02:27.803Z,94.46
2017-11-24T15:03:38.061Z,94.27
2017-11-24T15:04:48.115Z,93.98
2017-11-24T15:05:58.492Z,94.41
2017-11-24T15:07:08.690Z,94.37
2017-11-24T15:08:19.166Z,94.51